createdAt,value
2022-12-29T00:01:41.794Z,99656.03
2022-12-29T00:04:15.023Z,99648.25
2022-12-29T00:06:43.211Z,99641.34
2022-12-29T00:09:14.518Z,99651.69
2022-12-29T00:11:41.770Z,99635.28
2022-12-29T00:14:29.016Z,99633.53
2022-12-29T00:16:55.714Z,99629.22
2022-12-29T00:19:43.340Z,99625.75
2022-12-29T00:22:33.318Z,99617.94
2022-12-29T00:25:19.422Z,99619.69
2022-12-29T00:28:07.560Z,99610.13
2022-12-29T00:30:53.621Z,99619.66
2022-12-29T00:33:40.387Z,99617.91
2022-12-29T00:36:34.371Z,99611.88
2022-12-29T00:39:26.647Z,99595.41
2022-12-29T00:42:13.704Z,99600.63
2022-12-29T00:44:40.202Z,99613.59
2022-12-29T00:47:06.743Z,99595.41
2022-12-29T00:49:34.103Z,99606.63
2022-12-29T00:52:06.566Z,99601.47
2022-12-29T00:54:36.032Z,99602.28
2022-12-29T00:57:03.321Z,99598.81
2022-12-29T00:59:29.956Z,99599.75
2022-12-29T01:01:56.864Z,99591.84
2022-12-29T01:04:26.661Z,99590.16
2022-12-29T01:06:53.447Z,99591.91
2022-12-29T01:09:39.211Z,99592.78
2022-12-29T01:12:08.310Z,99590.19
2022-12-29T01:14:36.643Z,99586.69
2022-12-29T01:17:04.927Z,99591.88
2022-12-29T01:19:31.742Z,99574.50
2022-12-29T01:21:58.360Z,99573.66
2022-12-29T01:24:26.394Z,99574.50
2022-12-29T01:26:53.175Z,99572.78
2022-12-29T01:29:19.744Z,99578.91
2022-12-29T01:31:46.938Z,99563.25
2022-12-29T01:34:14.181Z,99558.00
2022-12-29T01:36:40.743Z,99561.53
2022-12-29T01:39:07.227Z,99558.09
2022-12-29T01:41:34.145Z,99555.41
2022-12-29T01:44:02.676Z,99549.44
2022-12-29T01:46:35.427Z,99543.16
2022-12-29T01:49:20.986Z,99551.97
2022-12-29T01:51:55.110Z,99544.13
2022-12-29T01:54:26.082Z,99531.94
2022-12-29T01:56:54.556Z,99539.59
2022-12-29T01:59:23.859Z,99533.69
2022-12-29T02:01:51.007Z,99524.94
2022-12-29T02:04:17.895Z,99524.19
2022-12-29T02:06:52.990Z,99536.09
2022-12-29T02:09:19.740Z,99520.72
2022-12-29T02:11:47.103Z,99523.28
2022-12-29T02:14:14.618Z,99502.41
2022-12-29T02:16:41.070Z,99499.94
2022-12-29T02:19:45.342Z,99506.84
2022-12-29T02:22:21.035Z,99497.09
2022-12-29T02:24:56.115Z,99491.09
2022-12-29T02:27:44.401Z,99499.03
2022-12-29T02:30:18.505Z,99500.75
2022-12-29T02:32:47.898Z,99498.00
2022-12-29T02:35:38.385Z,99496.25
2022-12-29T02:38:30.966Z,99487.69
2022-12-29T02:41:04.276Z,99487.47
2022-12-29T02:43:50.970Z,99489.28
2022-12-29T02:46:30.188Z,99486.91
2022-12-29T02:49:20.073Z,99483.34
2022-12-29T02:51:56.737Z,99483.22
2022-12-29T02:54:41.980Z,99483.22
2022-12-29T02:57:14.540Z,99488.38
2022-12-29T02:59:42.686Z,99486.63
2022-12-29T03:02:21.495Z,99468.59
2022-12-29T03:05:03.269Z,99457.97
2022-12-29T03:07:56.817Z,99460.63
2022-12-29T03:10:55.438Z,99454.34
2022-12-29T03:14:05.008Z,99446.56
2022-12-29T03:16:43.863Z,99467.34
2022-12-29T03:19:13.048Z,99458.56
2022-12-29T03:22:28.036Z,99448.31
2022-12-29T03:25:01.746Z,99453.69
2022-12-29T03:27:35.932Z,99451.25
2022-12-29T03:30:04.265Z,99443.25
2022-12-29T03:32:37.911Z,99448.47
2022-12-29T03:35:05.808Z,99448.50
2022-12-29T03:37:37.018Z,99436.22
2022-12-29T03:40:05.125Z,99433.00
2022-12-29T03:42:33.898Z,99434.47
2022-12-29T03:45:01.414Z,99433.63
2022-12-29T03:47:28.009Z,99434.69
2022-12-29T03:49:54.517Z,99429.19
2022-12-29T03:52:20.979Z,99433.50
2022-12-29T03:54:48.048Z,99436.00
2022-12-29T03:57:14.535Z,99417.75
2022-12-29T03:59:41.018Z,99418.69
2022-12-29T04:02:07.686Z,99414.25
2022-12-29T04:04:34.225Z,99416.84
2022-12-29T04:07:00.712Z,99413.63
2022-12-29T04:09:27.156Z,99409.28
2022-12-29T04:11:53.641Z,99403.06
2022-12-29T04:14:20.098Z,99403.13
2022-12-29T04:16:46.554Z,99409.81
2022-12-29T04:19:12.994Z,99404.50
2022-12-29T04:21:39.498Z,99396.94
2022-12-29T04:24:07.720Z,99398.59
2022-12-29T04:26:34.313Z,99397.91
2022-12-29T04:29:00.762Z,99376.53
2022-12-29T04:31:27.301Z,99376.66
2022-12-29T04:33:53.798Z,99379.25
2022-12-29T04:36:21.699Z,99376.75
2022-12-29T04:38:49.774Z,99369.25
2022-12-29T04:41:16.258Z,99374.16
2022-12-29T04:43:43.554Z,99375.22
2022-12-29T04:46:10.067Z,99365.31
2022-12-29T04:48:36.595Z,99361.69
2022-12-29T04:51:03.138Z,99357.25
2022-12-29T04:53:29.637Z,99350.75
2022-12-29T04:55:56.174Z,99342.75
2022-12-29T04:58:23.522Z,99350.84
2022-12-29T05:00:51.344Z,99348.06
2022-12-29T05:03:17.945Z,99353.28
2022-12-29T05:05:45.128Z,99348.19
2022-12-29T05:08:11.757Z,99335.78
2022-12-29T05:10:38.330Z,99343.69
2022-12-29T05:13:04.772Z,99336.69
2022-12-29T05:15:31.301Z,99339.50
2022-12-29T05:17:57.832Z,99333.16
2022-12-29T05:20:24.336Z,99338.56
2022-12-29T05:22:50.809Z,99332.88
2022-12-29T05:25:17.383Z,99338.75
2022-12-29T05:27:43.880Z,99342.28
2022-12-29T05:30:10.942Z,99336.69
2022-12-29T05:32:37.439Z,99331.78
2022-12-29T05:35:04.230Z,99331.66
2022-12-29T05:37:30.691Z,99340.63
2022-12-29T05:39:57.168Z,99333.44
2022-12-29T05:42:23.657Z,99341.09
2022-12-29T05:44:53.081Z,99340.25
2022-12-29T05:47:19.570Z,99338.16
2022-12-29T05:49:46.064Z,99331.78
2022-12-29T05:52:12.546Z,99339.75
2022-12-29T05:54:39.025Z,99343.09
2022-12-29T05:57:05.480Z,99341.28
2022-12-29T05:59:31.909Z,99350.91
2022-12-29T06:01:58.528Z,99341.38
2022-12-29T06:04:25.085Z,99351.19
2022-12-29T06:06:51.670Z,99361.88
2022-12-29T06:09:18.109Z,99368.50
2022-12-29T06:11:44.580Z,99368.19
2022-12-29T06:14:11.188Z,99362.03
2022-12-29T06:16:37.677Z,99368.91
2022-12-29T06:19:04.324Z,99358.09
2022-12-29T06:21:30.844Z,99365.44
2022-12-29T06:23:57.309Z,99371.53
2022-12-29T06:26:24.046Z,99372.56
2022-12-29T06:28:50.498Z,99371.13
2022-12-29T06:31:17.076Z,99354.97
2022-12-29T06:33:47.151Z,99358.41
2022-12-29T06:36:16.085Z,99373.22
2022-12-29T06:38:43.970Z,99356.78
2022-12-29T06:41:10.568Z,99358.38
2022-12-29T06:43:39.206Z,99349.00
2022-12-29T06:46:06.180Z,99356.47
2022-12-29T06:48:32.756Z,99359.25
2022-12-29T06:50:59.257Z,99353.59
2022-12-29T06:53:25.793Z,99353.13
2022-12-29T06:55:52.246Z,99350.66
2022-12-29T06:58:19.230Z,99334.19
2022-12-29T07:00:45.821Z,99343.66
2022-12-29T07:03:12.370Z,99336.22
2022-12-29T07:05:38.890Z,99338.28
2022-12-29T07:08:05.970Z,99340.03
2022-12-29T07:10:32.695Z,99346.38
2022-12-29T07:12:59.231Z,99353.19
2022-12-29T07:15:25.709Z,99349.53
2022-12-29T07:17:52.277Z,99364.22
2022-12-29T07:20:24.766Z,99357.56
2022-12-29T07:22:52.944Z,99355.72
2022-12-29T07:25:19.395Z,99355.84
2022-12-29T07:27:45.947Z,99361.50
2022-12-29T07:30:12.936Z,99362.66
2022-12-29T07:32:39.381Z,99364.03
2022-12-29T07:35:06.210Z,99373.19
2022-12-29T07:37:32.736Z,99376.44
2022-12-29T07:39:59.277Z,99380.00
2022-12-29T07:42:25.767Z,99389.78
2022-12-29T07:44:52.233Z,99383.47
2022-12-29T07:47:18.743Z,99391.72
2022-12-29T07:49:45.187Z,99401.09
2022-12-29T07:52:11.662Z,99396.34
2022-12-29T07:54:38.124Z,99400.66
2022-12-29T07:57:05.373Z,99387.06
2022-12-29T07:59:31.885Z,99398.16
2022-12-29T08:01:58.490Z,99403.38
2022-12-29T08:04:25.047Z,99396.91
2022-12-29T08:06:51.624Z,99397.00
2022-12-29T08:09:22.315Z,99402.78
2022-12-29T08:11:50.602Z,99407.13
2022-12-29T08:14:17.376Z,99401.78
2022-12-29T08:16:43.828Z,99401.63
2022-12-29T08:19:12.516Z,99413.59
2022-12-29T08:21:39.659Z,99415.38
2022-12-29T08:24:07.071Z,99411.81
2022-12-29T08:26:33.859Z,99417.81
2022-12-29T08:29:00.369Z,99412.78
2022-12-29T08:31:26.854Z,99419.75
2022-12-29T08:33:53.351Z,99412.78
2022-12-29T08:36:19.842Z,99417.13
2022-12-29T08:38:46.316Z,99419.84
2022-12-29T08:41:12.802Z,99416.75
2022-12-29T08:43:39.359Z,99412.94
2022-12-29T08:46:05.997Z,99412.34
2022-12-29T08:48:32.502Z,99419.94
2022-12-29T08:50:58.999Z,99421.44
2022-12-29T08:53:25.481Z,99413.56
2022-12-29T08:56:04.745Z,99422.28
2022-12-29T08:58:32.051Z,99430.41
2022-12-29T09:00:59.006Z,99413.81
2022-12-29T09:04:03.803Z,99436.59
2022-12-29T09:06:12.501Z,99430.25
2022-12-29T09:08:38.994Z,99442.22
2022-12-29T09:11:17.551Z,99432.13
2022-12-29T09:13:44.136Z,99444.09
2022-12-29T09:16:11.013Z,99438.00
2022-12-29T09:18:38.339Z,99434.00
2022-12-29T09:21:06.148Z,99440.03
2022-12-29T09:23:33.704Z,99453.03
2022-12-29T09:26:00.403Z,99454.78
2022-12-29T09:28:27.349Z,99453.75
2022-12-29T09:30:53.848Z,99455.25
2022-12-29T09:33:20.401Z,99462.28
2022-12-29T09:35:52.882Z,99451.41
2022-12-29T09:38:19.444Z,99463.16
2022-12-29T09:40:50.885Z,99460.66
2022-12-29T09:43:24.592Z,99461.28
2022-12-29T09:46:04.465Z,99467.34
2022-12-29T09:48:34.637Z,99457.09
2022-12-29T09:51:04.495Z,99464.44
2022-12-29T09:54:01.831Z,99466.69
2022-12-29T09:56:28.845Z,99468.66
2022-12-29T09:59:07.100Z,99465.41
2022-12-29T10:01:38.469Z,99470.09
2022-12-29T10:04:06.282Z,99483.91
2022-12-29T10:07:27.935Z,99487.41
2022-12-29T10:10:02.084Z,99483.97
2022-12-29T10:12:52.226Z,99479.41
2022-12-29T10:15:30.612Z,99472.19
2022-12-29T10:18:00.126Z,99477.38
2022-12-29T10:20:58.834Z,99477.63
2022-12-29T10:23:42.212Z,99478.81
2022-12-29T10:26:29.684Z,99469.81
2022-12-29T10:29:00.472Z,99468.97
2022-12-29T10:31:37.027Z,99455.22
2022-12-29T10:34:11.158Z,99453.25
2022-12-29T10:36:44.192Z,99470.13
2022-12-29T10:39:29.911Z,99472.66
2022-12-29T10:42:08.867Z,99458.72
2022-12-29T10:44:35.746Z,99461.31
2022-12-29T10:47:21.239Z,99462.41
2022-12-29T10:49:48.780Z,99461.81
2022-12-29T10:52:17.702Z,99463.63
2022-12-29T10:54:55.190Z,99460.47
2022-12-29T10:57:31.788Z,99454.66
2022-12-29T10:59:58.661Z,99463.78
2022-12-29T11:02:38.515Z,99465.09
2022-12-29T11:05:23.989Z,99457.69
2022-12-29T11:07:53.062Z,99452.25
2022-12-29T11:10:25.629Z,99445.00
2022-12-29T11:13:03.132Z,99448.19
2022-12-29T11:15:49.479Z,99456.78
2022-12-29T11:18:22.268Z,99446.25
2022-12-29T11:21:02.278Z,99458.88
2022-12-29T11:23:37.695Z,99459.13
2022-12-29T11:26:23.903Z,99464.34
2022-12-29T11:29:17.137Z,99442.75
2022-12-29T11:31:55.219Z,99452.19
2022-12-29T11:34:35.918Z,99459.03
2022-12-29T11:37:07.850Z,99443.50
2022-12-29T11:39:39.070Z,99456.34
2022-12-29T11:43:03.621Z,99457.44
2022-12-29T11:45:35.369Z,99458.84
2022-12-29T11:48:22.161Z,99451.41
2022-12-29T11:50:54.481Z,99455.63
2022-12-29T11:53:41.014Z,99454.00
2022-12-29T11:56:12.162Z,99453.88
2022-12-29T11:58:39.533Z,99457.19
2022-12-29T12:01:24.371Z,99443.56
2022-12-29T12:04:09.407Z,99454.78
2022-12-29T12:06:43.870Z,99446.13
2022-12-29T12:09:24.404Z,99454.25
2022-12-29T12:11:54.888Z,99460.22
2022-12-29T12:14:25.554Z,99455.41
2022-12-29T12:17:22.074Z,99454.25
2022-12-29T12:20:19.539Z,99454.00
2022-12-29T12:23:00.927Z,99454.94
2022-12-29T12:25:32.949Z,99455.53
2022-12-29T12:28:12.485Z,99444.44
2022-12-29T12:30:56.490Z,99442.66
2022-12-29T12:33:32.361Z,99451.56
2022-12-29T12:36:28.427Z,99443.56
2022-12-29T12:39:10.808Z,99452.41
2022-12-29T12:41:55.645Z,99455.31
2022-12-29T12:44:54.059Z,99463.97
2022-12-29T12:47:45.037Z,99471.69
2022-12-29T12:50:36.257Z,99474.44
2022-12-29T12:53:19.615Z,99471.47
2022-12-29T12:55:46.031Z,99474.34
2022-12-29T12:58:23.797Z,99470.88
2022-12-29T13:01:16.455Z,99484.06
2022-12-29T13:03:55.313Z,99481.53
2022-12-29T13:06:35.914Z,99497.94
2022-12-29T13:09:31.070Z,99494.09
2022-12-29T13:12:27.282Z,99504.97
2022-12-29T13:15:04.924Z,99500.66
2022-12-29T13:17:33.588Z,99498.84
2022-12-29T13:20:13.431Z,99503.97
2022-12-29T13:22:51.858Z,99512.47
2022-12-29T13:25:29.368Z,99505.72
2022-12-29T13:28:10.487Z,99524.03
2022-12-29T13:31:12.198Z,99518.59
2022-12-29T13:33:43.739Z,99526.41
2022-12-29T13:37:01.011Z,99581.19
2022-12-29T13:39:33.112Z,99578.94
2022-12-29T13:42:00.233Z,99586.75
2022-12-29T13:44:36.270Z,99582.41
2022-12-29T13:47:33.031Z,99584.16
2022-12-29T13:50:02.274Z,99591.06
2022-12-29T13:52:47.328Z,99595.38
2022-12-29T13:55:42.438Z,99602.28
2022-12-29T13:58:24.153Z,99614.47
2022-12-29T14:01:11.634Z,99609.25
2022-12-29T14:03:51.348Z,99621.34
2022-12-29T14:06:29.390Z,99616.97
2022-12-29T14:08:59.469Z,99618.72
2022-12-29T14:11:40.059Z,99637.78
2022-12-29T14:14:24.651Z,99637.81
2022-12-29T14:16:52.161Z,99641.25
2022-12-29T14:19:27.123Z,99642.16
2022-12-29T14:21:56.942Z,99649.13
2022-12-29T14:24:41.169Z,99643.91
2022-12-29T14:27:10.690Z,99654.34
2022-12-29T14:29:40.202Z,99663.88
2022-12-29T14:32:21.654Z,99668.19
2022-12-29T14:34:52.422Z,99662.13
2022-12-29T14:37:31.552Z,99674.28
2022-12-29T14:40:18.829Z,99700.31
2022-12-29T14:42:46.823Z,99681.22
2022-12-29T14:45:16.454Z,99689.88
2022-12-29T14:47:45.277Z,99692.47
2022-12-29T14:50:11.716Z,99699.44
2022-12-29T14:53:03.645Z,99708.97
2022-12-29T14:55:55.427Z,99709.81
2022-12-29T14:58:27.476Z,99719.38
2022-12-29T15:00:54.148Z,99711.56
2022-12-29T15:03:20.732Z,99710.69
2022-12-29T15:05:50.646Z,99716.78
2022-12-29T15:08:33.080Z,99721.09
2022-12-29T15:11:02.261Z,99722.84
2022-12-29T15:13:40.428Z,99741.09
2022-12-29T15:16:22.572Z,99736.72
2022-12-29T15:18:49.077Z,99743.59
2022-12-29T15:21:17.047Z,99744.50
2022-12-29T15:23:45.287Z,99758.41
2022-12-29T15:26:13.035Z,99770.53
2022-12-29T15:28:44.632Z,99774.00
2022-12-29T15:31:16.731Z,99777.47
2022-12-29T15:33:48.296Z,99787.91
2022-12-29T15:36:23.673Z,99794.84
2022-12-29T15:38:50.888Z,99783.53
2022-12-29T15:42:03.164Z,99800.91
2022-12-29T15:44:33.767Z,99800.00
2022-12-29T15:47:05.802Z,99795.69
2022-12-29T15:49:33.116Z,99799.19
2022-12-29T15:51:59.806Z,99806.09
2022-12-29T15:54:28.373Z,99815.59
2022-12-29T15:56:54.801Z,99805.22
2022-12-29T15:59:29.322Z,99808.69
2022-12-29T16:01:57.904Z,99821.66
2022-12-29T16:04:27.277Z,99814.72
2022-12-29T16:07:04.188Z,99821.69
2022-12-29T16:09:44.510Z,99819.88
2022-12-29T16:12:20.496Z,99829.41
2022-12-29T16:15:05.760Z,99832.00
2022-12-29T16:17:34.691Z,99839.78
2022-12-29T16:20:04.856Z,99836.38
2022-12-29T16:22:34.202Z,99829.50
2022-12-29T16:25:05.826Z,99838.19
2022-12-29T16:27:36.992Z,99842.44
2022-12-29T16:30:18.561Z,99836.38
2022-12-29T16:32:50.021Z,99841.50
2022-12-29T16:35:31.140Z,99852.03
2022-12-29T16:38:16.383Z,99850.31
2022-12-29T16:41:05.697Z,99849.41
2022-12-29T16:43:36.079Z,99847.66
2022-12-29T16:46:02.554Z,99852.75
2022-12-29T16:48:31.900Z,99850.06
2022-12-29T16:51:06.562Z,99863.06
2022-12-29T16:53:36.162Z,99862.13
2022-12-29T16:56:09.171Z,99867.50
2022-12-29T16:58:36.270Z,99875.31
2022-12-29T17:01:06.693Z,99865.81
2022-12-29T17:03:40.238Z,99881.31
2022-12-29T17:06:07.237Z,99882.22
2022-12-29T17:08:44.605Z,99877.97
2022-12-29T17:11:51.207Z,99885.78
2022-12-29T17:14:35.687Z,99900.44
2022-12-29T17:17:04.260Z,99902.97
2022-12-29T17:19:37.274Z,99889.09
2022-12-29T17:22:04.442Z,99890.09
2022-12-29T17:24:30.980Z,99885.81
2022-12-29T17:26:59.776Z,99898.84
2022-12-29T17:29:40.021Z,99898.75
2022-12-29T17:32:10.962Z,99898.72
2022-12-29T17:34:37.403Z,99905.69
2022-12-29T17:37:04.256Z,99894.56
2022-12-29T17:39:30.774Z,99912.69
2022-12-29T17:41:57.262Z,99909.16
2022-12-29T17:44:25.172Z,99901.38
2022-12-29T17:46:51.741Z,99912.63
2022-12-29T17:49:18.804Z,99908.34
2022-12-29T17:51:46.607Z,99898.00
2022-12-29T17:54:20.135Z,99906.59
2022-12-29T17:56:46.804Z,99904.00
2022-12-29T17:59:16.116Z,99911.00
2022-12-29T18:01:45.785Z,99903.03
2022-12-29T18:04:15.231Z,99910.09
2022-12-29T18:06:42.802Z,99903.03
2022-12-29T18:09:10.737Z,99916.84
2022-12-29T18:11:42.787Z,99909.91
2022-12-29T18:14:14.319Z,99909.00
2022-12-29T18:16:41.462Z,99911.66
2022-12-29T18:19:09.404Z,99920.44
2022-12-29T18:21:37.392Z,99922.16
2022-12-29T18:24:03.958Z,99916.91
2022-12-29T18:26:35.701Z,99920.53
2022-12-29T18:29:02.222Z,99925.69
2022-12-29T18:31:31.556Z,99922.13
2022-12-29T18:34:00.744Z,99920.53
2022-12-29T18:36:27.731Z,99918.72
2022-12-29T18:38:54.855Z,99913.47
2022-12-29T18:41:23.969Z,99915.22
2022-12-29T18:43:50.547Z,99922.22
2022-12-29T18:46:22.706Z,99928.38
2022-12-29T18:48:49.827Z,99922.19
2022-12-29T18:51:18.733Z,99927.38
2022-12-29T18:53:45.715Z,99921.28
2022-12-29T18:56:12.446Z,99930.78
2022-12-29T18:58:39.355Z,99928.28
2022-12-29T19:01:06.699Z,99924.00
2022-12-29T19:03:33.690Z,99913.56
2022-12-29T19:06:00.836Z,99914.50
2022-12-29T19:08:27.559Z,99918.03
2022-12-29T19:10:54.819Z,99912.00
2022-12-29T19:13:29.320Z,99913.50
2022-12-29T19:15:57.170Z,99914.34
2022-12-29T19:18:43.588Z,99908.22
2022-12-29T19:21:11.603Z,99907.34
2022-12-29T19:23:38.147Z,99901.16
2022-12-29T19:26:04.689Z,99902.25
2022-12-29T19:28:31.312Z,99894.34
2022-12-29T19:31:00.013Z,99887.50
2022-12-29T19:33:26.789Z,99879.75
2022-12-29T19:35:53.347Z,99892.78
2022-12-29T19:38:19.908Z,99885.75
2022-12-29T19:40:49.069Z,99897.97
2022-12-29T19:43:15.667Z,99906.59
2022-12-29T19:45:43.832Z,99903.16
2022-12-29T19:48:16.337Z,99912.44
2022-12-29T19:50:43.854Z,99914.28
2022-12-29T19:53:11.358Z,99916.97
2022-12-29T19:55:41.316Z,99927.34
2022-12-29T19:58:07.847Z,99930.78
2022-12-29T20:00:34.381Z,99934.22
2022-12-29T20:03:01.036Z,99948.03
2022-12-29T20:05:27.612Z,99933.34
2022-12-29T20:07:54.083Z,99942.00
2022-12-29T20:10:20.529Z,99937.50
2022-12-29T20:12:47.099Z,99943.00
2022-12-29T20:15:15.169Z,99927.38
2022-12-29T20:20:28.210Z,99939.06
2022-12-29T20:22:54.743Z,99940.22
2022-12-29T20:28:08.470Z,99946.38
2022-12-29T20:30:34.993Z,99947.94
2022-12-29T20:33:06.203Z,99955.72
2022-12-29T20:35:34.766Z,99961.88
2022-12-29T20:38:01.261Z,99955.03
2022-12-29T20:40:29.154Z,99959.97
2022-12-29T20:42:56.439Z,99961.00
2022-12-29T20:45:24.524Z,99965.22
2022-12-29T20:47:51.036Z,99962.63
2022-12-29T20:50:17.493Z,99965.78
2022-12-29T20:52:44.027Z,99966.94
2022-12-29T20:55:10.623Z,99967.72
2022-12-29T20:58:13.661Z,99975.38
2022-12-29T21:00:23.805Z,99977.22
2022-12-29T21:02:50.912Z,99982.44
2022-12-29T21:05:25.610Z,99977.09
2022-12-29T21:07:53.710Z,99982.09
2022-12-29T21:10:20.974Z,99980.28
2022-12-29T21:12:48.495Z,99989.47
2022-12-29T21:15:15.591Z,99989.97
2022-12-29T21:17:43.400Z,99996.19
2022-12-29T21:20:20.153Z,99994.63
2022-12-29T21:22:49.926Z,99997.94
2022-12-29T21:25:16.472Z,99995.47
2022-12-29T21:27:45.837Z,99998.66
2022-12-29T21:30:12.972Z,99984.25
2022-12-29T21:32:40.694Z,99997.91
2022-12-29T21:35:08.796Z,99985.97
2022-12-29T21:37:35.922Z,99992.16
2022-12-29T21:40:02.898Z,100000.47
2022-12-29T21:42:30.359Z,100000.59
2022-12-29T21:45:20.502Z,99999.16
2022-12-29T21:48:06.845Z,100008.69
2022-12-29T21:50:33.366Z,100002.66
2022-12-29T21:52:59.857Z,100000.69
2022-12-29T21:55:26.474Z,100009.53
2022-12-29T21:58:11.488Z,100010.41
2022-12-29T22:00:56.717Z,100019.28
2022-12-29T22:03:41.859Z,100020.56
2022-12-29T22:06:30.099Z,100014.75
2022-12-29T22:09:15.471Z,100015.75
2022-12-29T22:12:00.720Z,100016.28
2022-12-29T22:14:27.199Z,100021.72
2022-12-29T22:16:53.797Z,100023.53
2022-12-29T22:19:20.350Z,100023.09
2022-12-29T22:21:46.858Z,100029.69
2022-12-29T22:24:13.492Z,100025.19
2022-12-29T22:26:40.032Z,100026.88
2022-12-29T22:29:06.608Z,100024.25
2022-12-29T22:31:34.146Z,100034.41
2022-12-29T22:34:02.547Z,100033.88
2022-12-29T22:36:29.557Z,100034.56
2022-12-29T22:38:56.614Z,100045.78
2022-12-29T22:41:23.903Z,100032.06
2022-12-29T22:43:50.381Z,100037.69
2022-12-29T22:46:16.912Z,100041.75
2022-12-29T22:48:44.885Z,100046.25
2022-12-29T22:51:11.538Z,100038.09
2022-12-29T22:53:38.251Z,100048.56
2022-12-29T22:56:07.124Z,100046.59
2022-12-29T22:58:34.067Z,100053.59
2022-12-29T23:01:01.036Z,100065.53
2022-12-29T23:03:28.796Z,100068.22
2022-12-29T23:06:03.823Z,100065.84
2022-12-29T23:08:38.494Z,100076.94
2022-12-29T23:11:08.056Z,100070.84
2022-12-29T23:13:34.683Z,100074.94
2022-12-29T23:16:01.495Z,100076.59
2022-12-29T23:18:28.347Z,100079.00
2022-12-29T23:20:54.808Z,100082.88
2022-12-29T23:23:46.507Z,100086.03
2022-12-29T23:26:16.468Z,100093.78
2022-12-29T23:28:42.957Z,100099.41
2022-12-29T23:31:09.936Z,100098.31
2022-12-29T23:33:36.799Z,100102.81
2022-12-29T23:36:04.519Z,100102.66
2022-12-29T23:38:31.113Z,100098.13
2022-12-29T23:40:57.692Z,100107.84
2022-12-29T23:43:24.225Z,100108.50
2022-12-29T23:45:51.332Z,100113.91
2022-12-29T23:48:18.760Z,100113.81
2022-12-29T23:50:45.796Z,100120.59
2022-12-29T23:53:12.441Z,100120.81
2022-12-29T23:55:41.682Z,100133.22
2022-12-29T23:58:09.378Z,100137.56
